createdAt,value
2022-10-12T00:04:13.956Z,0.00
2022-10-12T00:09:15.193Z,0.00
2022-10-12T00:14:17.301Z,0.00
2022-10-12T00:19:16.414Z,0.00
2022-10-12T00:24:19.541Z,0.00
2022-10-12T00:29:19.644Z,0.00
2022-10-12T00:34:18.927Z,0.00
2022-10-12T00:39:20.170Z,0.00
2022-10-12T00:44:21.561Z,0.00
2022-10-12T00:49:23.660Z,0.00
2022-10-12T00:54:22.778Z,0.00
2022-10-12T00:59:23.989Z,0.00
2022-10-12T01:04:25.143Z,0.00
2022-10-12T01:09:26.233Z,0.00
2022-10-12T01:14:28.339Z,0.00
2022-10-12T01:19:27.487Z,0.00
2022-10-12T01:24:28.708Z,0.00
2022-10-12T01:29:29.937Z,0.00
2022-10-12T01:34:31.023Z,0.00
2022-10-12T01:39:32.124Z,0.00
2022-10-12T01:44:33.359Z,0.00
2022-10-12T01:49:34.781Z,0.00
2022-10-12T01:54:35.871Z,0.00
2022-10-12T01:59:37.062Z,0.00
2022-10-12T02:04:39.150Z,0.00
2022-10-12T02:09:39.267Z,0.00
2022-10-12T02:14:38.546Z,0.00
2022-10-12T02:19:39.790Z,0.00
2022-10-12T02:24:42.904Z,0.00
2022-10-12T02:29:42.127Z,0.00
2022-10-12T02:34:43.537Z,0.00
2022-10-12T02:39:44.750Z,0.00
2022-10-12T02:44:46.047Z,0.00
2022-10-12T02:49:48.171Z,0.00
2022-10-12T02:54:48.299Z,0.00
2022-10-12T02:59:48.413Z,0.00
2022-10-12T03:04:48.519Z,0.00
2022-10-12T03:09:48.631Z,0.00
2022-10-12T03:14:47.882Z,0.00
2022-10-12T03:19:49.154Z,0.00
2022-10-12T03:24:50.391Z,0.00
2022-10-12T03:29:55.436Z,0.00
2022-10-12T03:34:53.577Z,0.00
2022-10-12T03:39:52.795Z,0.00
2022-10-12T03:44:53.971Z,0.00
2022-10-12T03:49:55.153Z,0.00
2022-10-12T03:54:57.306Z,0.00
2022-10-12T03:59:56.456Z,0.00
2022-10-12T04:04:57.582Z,0.00
2022-10-12T04:09:58.858Z,0.00
2022-10-12T04:15:00.088Z,0.00
2022-10-12T04:20:01.308Z,0.00
2022-10-12T04:25:02.617Z,0.00
2022-10-12T04:30:03.815Z,0.00
2022-10-12T04:35:05.037Z,0.00
2022-10-12T04:40:06.270Z,0.00
2022-10-12T04:45:07.525Z,0.00
2022-10-12T04:50:08.790Z,0.00
2022-10-12T04:55:09.951Z,0.00
2022-10-12T05:00:11.263Z,0.00
2022-10-12T05:05:12.515Z,0.00
2022-10-12T05:10:13.693Z,0.00
2022-10-12T05:15:14.898Z,0.00
2022-10-12T05:20:15.997Z,8.00
2022-10-12T05:25:17.101Z,16.00
2022-10-12T05:30:18.314Z,24.00
2022-10-12T05:35:19.576Z,40.00
2022-10-12T05:40:20.801Z,68.00
2022-10-12T05:45:22.068Z,100.00
2022-10-12T05:50:24.154Z,152.00
2022-10-12T05:55:22.324Z,180.00
2022-10-12T06:00:23.698Z,176.00
2022-10-12T06:05:26.106Z,172.00
2022-10-12T06:10:29.793Z,216.00
2022-10-12T06:15:27.187Z,328.00
2022-10-12T06:20:26.494Z,456.00
2022-10-12T06:25:27.691Z,656.00
2022-10-12T06:30:28.998Z,588.00
2022-10-12T06:35:31.083Z,692.00
2022-10-12T06:40:30.682Z,664.00
2022-10-12T06:45:29.797Z,684.00
2022-10-12T06:50:31.020Z,636.00
2022-10-12T06:55:32.115Z,576.00
2022-10-12T07:00:33.325Z,820.00
2022-10-12T07:05:34.544Z,1088.00
2022-10-12T07:10:35.685Z,1156.00
2022-10-12T07:15:36.782Z,1328.00
2022-10-12T07:20:37.869Z,1532.00
2022-10-12T07:25:39.040Z,1824.00
2022-10-12T07:30:40.153Z,2252.00
2022-10-12T07:36:03.154Z,2304.00
2022-10-12T07:40:42.318Z,2504.00
2022-10-12T07:45:44.082Z,2288.00
2022-10-12T07:50:45.199Z,2444.00
2022-10-12T07:55:44.296Z,2768.00
2022-10-12T08:00:47.407Z,2800.00
2022-10-12T08:05:48.492Z,2960.00
2022-10-12T08:10:47.631Z,2968.00
2022-10-12T08:15:48.770Z,2912.00
2022-10-12T08:20:49.901Z,2952.00
2022-10-12T08:25:51.032Z,2964.00
2022-10-12T08:30:52.176Z,3372.00
2022-10-12T08:35:53.298Z,3528.00
2022-10-12T08:40:54.420Z,3272.00
2022-10-12T08:45:55.670Z,3412.00
2022-10-12T08:55:58.036Z,4016.00
2022-10-12T09:00:59.122Z,4532.00
2022-10-12T09:06:00.271Z,4244.00
2022-10-12T09:11:01.515Z,4392.00
2022-10-12T09:16:02.854Z,4088.00
2022-10-12T09:21:03.992Z,3404.00
2022-10-12T09:26:05.232Z,3144.00
2022-10-12T09:31:06.326Z,3176.00
2022-10-12T09:36:07.523Z,3332.00
2022-10-12T09:41:08.648Z,3764.00
2022-10-12T09:46:09.745Z,3776.00
2022-10-12T09:51:11.835Z,3896.00
2022-10-12T09:56:14.629Z,3928.00
2022-10-12T10:01:11.908Z,4024.00
2022-10-12T10:06:14.080Z,4544.00
2022-10-12T10:11:14.212Z,5088.00
2022-10-12T10:16:13.438Z,5504.00
2022-10-12T10:21:14.568Z,5948.00
2022-10-12T10:26:15.671Z,6168.00
2022-10-12T10:31:16.760Z,6304.00
2022-10-12T10:36:17.872Z,6388.00
2022-10-12T10:41:19.997Z,6232.00
2022-10-12T10:46:20.089Z,6316.00
2022-10-12T10:51:19.327Z,6308.00
2022-10-12T10:56:20.624Z,5472.00
2022-10-12T11:01:21.795Z,5332.00
2022-10-12T11:06:22.933Z,5896.00
2022-10-12T11:11:24.264Z,6232.00
2022-10-12T11:16:25.382Z,7852.00
2022-10-12T11:21:26.654Z,7300.00
2022-10-12T11:26:27.738Z,4852.00
2022-10-12T11:31:28.822Z,4956.00
2022-10-12T11:36:30.088Z,7836.00
2022-10-12T11:41:35.273Z,7000.00
2022-10-12T11:46:31.240Z,6924.00
2022-10-12T11:51:32.596Z,4684.00
2022-10-12T11:56:33.822Z,5172.00
2022-10-12T12:01:34.930Z,5196.00
2022-10-12T12:06:36.025Z,5932.00
2022-10-12T12:11:37.309Z,4560.00
2022-10-12T12:16:39.420Z,4832.00
2022-10-12T12:21:38.637Z,5592.00
2022-10-12T12:26:40.770Z,4932.00
2022-10-12T12:31:39.945Z,4580.00
2022-10-12T12:36:42.099Z,4412.00
2022-10-12T12:41:41.231Z,4664.00
2022-10-12T12:46:43.352Z,5788.00
2022-10-12T12:51:42.617Z,5740.00
2022-10-12T12:56:43.852Z,5924.00
2022-10-12T13:01:46.033Z,5068.00
2022-10-12T13:06:46.581Z,4904.00
2022-10-12T13:11:45.753Z,5720.00
2022-10-12T13:21:47.788Z,6484.00
2022-10-12T13:26:49.084Z,5348.00
2022-10-12T13:31:50.305Z,6220.00
2022-10-12T13:36:52.435Z,5636.00
2022-10-12T13:41:51.715Z,6336.00
2022-10-12T13:46:52.929Z,5500.00
2022-10-12T13:51:54.101Z,4972.00
2022-10-12T13:56:55.241Z,5772.00
2022-10-12T14:01:55.433Z,4944.00
2022-10-12T14:06:56.709Z,4076.00
2022-10-12T14:11:57.871Z,4052.00
2022-10-12T14:16:59.021Z,4008.00
2022-10-12T14:22:00.135Z,3704.00
2022-10-12T14:27:01.247Z,3964.00
2022-10-12T14:32:02.387Z,4212.00
2022-10-12T14:37:03.632Z,4908.00
2022-10-12T14:42:04.801Z,3888.00
2022-10-12T14:47:05.977Z,4240.00
2022-10-12T14:52:07.131Z,3880.00
2022-10-12T14:57:08.861Z,3228.00
2022-10-12T15:02:09.090Z,3032.00
2022-10-12T15:07:08.304Z,2828.00
2022-10-12T15:12:09.475Z,2544.00
2022-10-12T15:17:10.871Z,2452.00
2022-10-12T15:22:11.079Z,2300.00
2022-10-12T15:27:10.429Z,2148.00
2022-10-12T15:32:10.697Z,2084.00
2022-10-12T15:37:11.825Z,1880.00
2022-10-12T15:42:11.227Z,1772.00
2022-10-12T15:47:12.668Z,1648.00
2022-10-12T15:52:11.999Z,1480.00
2022-10-12T15:57:13.342Z,1352.00
2022-10-12T16:02:12.617Z,1164.00
2022-10-12T16:07:14.209Z,932.00
2022-10-12T16:12:13.565Z,772.00
2022-10-12T16:17:15.248Z,560.00
2022-10-12T16:22:15.001Z,404.00
2022-10-12T16:27:16.443Z,256.00
2022-10-12T16:32:16.130Z,180.00
2022-10-12T16:37:15.444Z,112.00
2022-10-12T16:42:16.854Z,56.00
2022-10-12T16:47:16.187Z,32.00
2022-10-12T16:52:17.594Z,16.00
2022-10-12T16:57:16.851Z,8.00
2022-10-12T17:02:18.117Z,4.00
2022-10-12T17:07:19.235Z,0.00
2022-10-12T17:12:21.331Z,0.00
2022-10-12T17:17:21.430Z,0.00
2022-10-12T17:22:20.636Z,0.00
2022-10-12T17:27:22.597Z,0.00
2022-10-12T17:32:21.946Z,0.00
2022-10-12T17:37:23.210Z,0.00
2022-10-12T17:42:24.440Z,0.00
2022-10-12T17:47:25.737Z,0.00
2022-10-12T17:52:26.965Z,0.00
2022-10-12T17:57:30.287Z,0.00
2022-10-12T18:02:29.540Z,0.00
2022-10-12T18:07:31.887Z,0.00
2022-10-12T18:12:32.265Z,0.00
2022-10-12T18:17:31.900Z,0.00
2022-10-12T18:22:31.291Z,0.00
2022-10-12T18:27:32.570Z,0.00
2022-10-12T18:32:33.798Z,0.00
2022-10-12T18:37:35.229Z,0.00
2022-10-12T18:42:35.619Z,0.00
2022-10-12T18:47:34.908Z,0.00
2022-10-12T18:52:37.092Z,0.00
2022-10-12T18:57:39.824Z,0.00
2022-10-12T19:02:41.747Z,0.00
2022-10-12T19:07:37.919Z,0.00
2022-10-12T19:12:40.106Z,0.00
2022-10-12T19:17:37.792Z,0.00
2022-10-12T19:22:37.214Z,0.00
2022-10-12T19:27:39.675Z,0.00
2022-10-12T19:32:38.033Z,0.00
2022-10-12T19:37:39.298Z,0.00
2022-10-12T19:42:41.280Z,0.00
2022-10-12T19:47:40.824Z,0.00
2022-10-12T19:52:40.329Z,0.00
2022-10-12T19:57:40.980Z,0.00
2022-10-12T20:02:41.474Z,0.00
2022-10-12T20:07:41.755Z,0.00
2022-10-12T20:12:42.858Z,0.00
2022-10-12T20:17:42.351Z,0.00
2022-10-12T20:22:42.545Z,0.00
2022-10-12T20:27:41.671Z,0.00
2022-10-12T20:32:42.864Z,0.00
2022-10-12T20:37:43.986Z,0.00
2022-10-12T20:42:45.071Z,0.00
2022-10-12T20:47:45.213Z,0.00
2022-10-12T20:52:46.557Z,0.00
2022-10-12T20:57:47.793Z,0.00
2022-10-12T21:02:49.063Z,0.00
2022-10-12T21:07:50.226Z,0.00
2022-10-12T21:12:52.330Z,0.00
2022-10-12T21:17:52.479Z,0.00
2022-10-12T21:22:51.584Z,0.00
2022-10-12T21:27:52.741Z,0.00
2022-10-12T21:32:54.120Z,0.00
2022-10-12T21:37:56.238Z,0.00
2022-10-12T21:42:55.347Z,0.00
2022-10-12T21:48:01.442Z,0.00
2022-10-12T21:53:00.226Z,0.00
2022-10-12T21:57:57.737Z,0.00
2022-10-12T22:02:58.906Z,0.00
2022-10-12T22:07:59.122Z,0.00
2022-10-12T22:13:44.255Z,0.00
2022-10-12T22:18:01.449Z,0.00
2022-10-12T22:23:02.523Z,0.00
2022-10-12T22:28:03.673Z,0.00
2022-10-12T22:33:05.818Z,0.00
2022-10-12T22:38:06.115Z,0.00
2022-10-12T22:43:05.283Z,0.00
2022-10-12T22:48:06.531Z,0.00
2022-10-12T22:53:07.774Z,0.00
2022-10-12T22:58:11.905Z,0.00
2022-10-12T23:03:09.128Z,0.00
2022-10-12T23:08:09.346Z,0.00
2022-10-12T23:13:11.461Z,0.00
2022-10-12T23:18:10.691Z,0.00
2022-10-12T23:23:11.878Z,0.00
2022-10-12T23:28:13.116Z,0.00
2022-10-12T23:33:18.164Z,0.00
2022-10-12T23:38:16.271Z,0.00
2022-10-12T23:43:15.424Z,0.00
2022-10-12T23:48:15.529Z,0.00
2022-10-12T23:53:17.607Z,0.00
2022-10-12T23:58:17.714Z,0.00
